sensor_id;sensor_type;location;lat;lon;timestamp;pressure;altitude;pressure_sealevel;temperature
67501;BMP180;54349;52.528;19.760;2023-07-20T01:12:57;99886.80;;;19.02
67501;BMP180;54349;52.528;19.760;2023-07-20T01:15:42;99880.20;;;18.56
67501;BMP180;54349;52.528;19.760;2023-07-20T01:18:17;99877.00;;;18.00
67501;BMP180;54349;52.528;19.760;2023-07-20T01:20:46;99881.40;;;17.60
67501;BMP180;54349;52.528;19.760;2023-07-20T03:16:10;99934.60;;;17.08
67501;BMP180;54349;52.528;19.760;2023-07-20T03:19:11;99950.60;;;17.68
67501;BMP180;54349;52.528;19.760;2023-07-20T03:21:43;99951.60;;;18.32
67501;BMP180;54349;52.528;19.760;2023-07-20T03:24:12;99956.20;;;18.78
67501;BMP180;54349;52.528;19.760;2023-07-20T03:26:51;99964.00;;;19.10
67501;BMP180;54349;52.528;19.760;2023-07-20T03:29:19;99964.40;;;18.56
67501;BMP180;54349;52.528;19.760;2023-07-20T03:31:48;99966.80;;;18.02
67501;BMP180;54349;52.528;19.760;2023-07-20T05:30:21;99984.00;;;18.82
67501;BMP180;54349;52.528;19.760;2023-07-20T05:33:22;99984.00;;;19.10
67501;BMP180;54349;52.528;19.760;2023-07-20T05:36:01;99981.20;;;18.28
67501;BMP180;54349;52.528;19.760;2023-07-20T05:38:29;99986.20;;;17.76
67501;BMP180;54349;52.528;19.760;2023-07-20T05:42:02;99982.80;;;17.40
67501;BMP180;54349;52.528;19.760;2023-07-20T05:44:30;99981.40;;;17.20
67501;BMP180;54349;52.528;19.760;2023-07-20T05:47:42;99982.80;;;17.74
67501;BMP180;54349;52.528;19.760;2023-07-20T05:50:11;99981.80;;;18.40
67501;BMP180;54349;52.528;19.760;2023-07-20T07:16:41;100001.60;;;16.70
67501;BMP180;54349;52.528;19.760;2023-07-20T07:19:10;100000.00;;;16.70
67501;BMP180;54349;52.528;19.760;2023-07-20T07:21:38;100002.80;;;16.70
67501;BMP180;54349;52.528;19.760;2023-07-20T07:24:20;100004.80;;;16.70
67501;BMP180;54349;52.528;19.760;2023-07-20T07:27:03;100006.00;;;16.70
67501;BMP180;54349;52.528;19.760;2023-07-20T07:29:39;100009.20;;;16.70
67501;BMP180;54349;52.528;19.760;2023-07-20T07:32:20;100013.00;;;16.68
67501;BMP180;54349;52.528;19.760;2023-07-20T09:16:55;100020.80;;;16.16
67501;BMP180;54349;52.528;19.760;2023-07-20T09:19:25;100016.40;;;16.94
67501;BMP180;54349;52.528;19.760;2023-07-20T09:21:55;100020.00;;;17.66
67501;BMP180;54349;52.528;19.760;2023-07-20T09:24:28;100018.40;;;18.28
67501;BMP180;54349;52.528;19.760;2023-07-20T09:26:57;100020.00;;;18.80
67501;BMP180;54349;52.528;19.760;2023-07-20T09:29:30;100021.20;;;19.30
67501;BMP180;54349;52.528;19.760;2023-07-20T09:32:00;100024.00;;;18.84
67501;BMP180;54349;52.528;19.760;2023-07-20T11:16:18;99961.20;;;16.10
67501;BMP180;54349;52.528;19.760;2023-07-20T11:18:49;99959.20;;;16.10
67501;BMP180;54349;52.528;19.760;2023-07-20T11:21:25;99949.40;;;16.10
67501;BMP180;54349;52.528;19.760;2023-07-20T11:23:55;99944.00;;;16.10
67501;BMP180;54349;52.528;19.760;2023-07-20T11:26:24;99950.00;;;16.20
67501;BMP180;54349;52.528;19.760;2023-07-20T11:29:09;99948.40;;;16.40
67501;BMP180;54349;52.528;19.760;2023-07-20T11:31:58;99954.20;;;16.50
67501;BMP180;54349;52.528;19.760;2023-07-20T13:17:07;99938.40;;;17.00
67501;BMP180;54349;52.528;19.760;2023-07-20T13:19:37;99932.20;;;17.00
67501;BMP180;54349;52.528;19.760;2023-07-20T13:23:07;99939.20;;;17.10
67501;BMP180;54349;52.528;19.760;2023-07-20T13:25:56;99931.60;;;17.14
67501;BMP180;54349;52.528;19.760;2023-07-20T13:28:31;99926.80;;;17.20
67501;BMP180;54349;52.528;19.760;2023-07-20T13:31:07;99921.80;;;17.30
67501;BMP180;54349;52.528;19.760;2023-07-20T13:33:54;99912.00;;;17.40
67501;BMP180;54349;52.528;19.760;2023-07-20T13:36:27;99907.60;;;17.44
67501;BMP180;54349;52.528;19.760;2023-07-20T15:16:07;100011.20;;;16.00
67501;BMP180;54349;52.528;19.760;2023-07-20T15:18:50;100027.20;;;16.00
67501;BMP180;54349;52.528;19.760;2023-07-20T15:21:25;100032.00;;;16.00
67501;BMP180;54349;52.528;19.760;2023-07-20T15:24:45;100039.40;;;16.00
67501;BMP180;54349;52.528;19.760;2023-07-20T15:27:25;100054.20;;;15.98
67501;BMP180;54349;52.528;19.760;2023-07-20T15:29:55;100057.00;;;16.18
67501;BMP180;54349;52.528;19.760;2023-07-20T15:32:25;100058.20;;;16.94
67501;BMP180;54349;52.528;19.760;2023-07-20T15:58:55;100059.00;;;17.20
67501;BMP180;54349;52.528;19.760;2023-07-20T16:01:35;100058.40;;;17.08
67501;BMP180;54349;52.528;19.760;2023-07-20T16:04:37;100060.60;;;17.00
67501;BMP180;54349;52.528;19.760;2023-07-20T16:07:22;100058.80;;;16.90
67501;BMP180;54349;52.528;19.760;2023-07-20T16:09:51;100059.80;;;16.90
67501;BMP180;54349;52.528;19.760;2023-07-20T16:12:22;100060.00;;;16.80
67501;BMP180;54349;52.528;19.760;2023-07-20T16:14:54;100057.60;;;16.70
67501;BMP180;54349;52.528;19.760;2023-07-20T17:16:43;100095.40;;;16.70
67501;BMP180;54349;52.528;19.760;2023-07-20T17:19:18;100105.00;;;16.60
67501;BMP180;54349;52.528;19.760;2023-07-20T17:21:47;100108.20;;;16.50
67501;BMP180;54349;52.528;19.760;2023-07-20T17:24:24;100102.00;;;16.40
67501;BMP180;54349;52.528;19.760;2023-07-20T17:27:06;100100.60;;;16.40
67501;BMP180;54349;52.528;19.760;2023-07-20T17:29:45;100110.40;;;16.30
67501;BMP180;54349;52.528;19.760;2023-07-20T17:32:24;100105.20;;;16.22
67501;BMP180;54349;52.528;19.760;2023-07-20T18:24:07;100097.20;;;17.30
67501;BMP180;54349;52.528;19.760;2023-07-20T18:26:50;100093.20;;;17.20
67501;BMP180;54349;52.528;19.760;2023-07-20T18:29:18;100100.60;;;17.20
67501;BMP180;54349;52.528;19.760;2023-07-20T18:31:48;100099.20;;;17.18
67501;BMP180;54349;52.528;19.760;2023-07-20T18:34:50;100101.60;;;17.10
67501;BMP180;54349;52.528;19.760;2023-07-20T18:37:19;100104.40;;;17.10
67501;BMP180;54349;52.528;19.760;2023-07-20T18:39:49;100109.40;;;17.00
67501;BMP180;54349;52.528;19.760;2023-07-20T18:42:20;100109.40;;;17.00
67501;BMP180;54349;52.528;19.760;2023-07-20T21:16:42;100180.80;;;16.50
67501;BMP180;54349;52.528;19.760;2023-07-20T21:19:18;100181.80;;;16.40
67501;BMP180;54349;52.528;19.760;2023-07-20T21:21:46;100177.40;;;16.40
67501;BMP180;54349;52.528;19.760;2023-07-20T21:24:22;100179.60;;;16.38
67501;BMP180;54349;52.528;19.760;2023-07-20T21:27:28;100183.20;;;16.36
67501;BMP180;54349;52.528;19.760;2023-07-20T21:30:03;100184.60;;;16.30
67501;BMP180;54349;52.528;19.760;2023-07-20T21:32:41;100192.40;;;16.30
67501;BMP180;54349;52.528;19.760;2023-07-20T23:13:43;100203.20;;;16.40
67501;BMP180;54349;52.528;19.760;2023-07-20T23:16:13;100204.00;;;16.30
67501;BMP180;54349;52.528;19.760;2023-07-20T23:18:49;100205.00;;;16.20
67501;BMP180;54349;52.528;19.760;2023-07-20T23:21:25;100207.60;;;16.20
67501;BMP180;54349;52.528;19.760;2023-07-20T23:24:12;100205.40;;;16.28
67501;BMP180;54349;52.528;19.760;2023-07-20T23:26:43;100210.40;;;17.02
67501;BMP180;54349;52.528;19.760;2023-07-20T23:29:13;100213.60;;;17.70
67501;BMP180;54349;52.528;19.760;2023-07-20T23:31:43;100216.60;;;18.24
